Time;durP1;ratioP1;P1;durP2;ratioP2;P2;SDS_P1;SDS_P2;PMS_P1;PMS_P2;Temp;Humidity;BMP_temperature;BMP_pressure;BME280_temperature;BME280_humidity;BME280_pressure;Samples;Min_cycle;Max_cycle;Signal;HPM_P1;HPM_P2
2021/06/23 00:01:38;;;;;;;12.55;10.52;;;30.10;47.70;;;;;;4385929;32;20080;-37
2021/06/23 00:04:04;;;;;;;10.45;9.65;;;30.10;47.40;;;;;;4385822;32;20078;-38
2021/06/23 00:06:31;;;;;;;10.50;9.48;;;30.10;47.40;;;;;;4399862;32;20616;-43
2021/06/23 00:08:57;;;;;;;10.65;9.45;;;30.10;47.00;;;;;;4388945;32;20488;-38
2021/06/23 00:11:24;;;;;;;11.18;9.95;;;30.00;46.90;;;;;;4370815;32;20122;-39
2021/06/23 00:13:50;;;;;;;11.40;10.25;;;29.90;47.10;;;;;;4346060;32;20146;-38
2021/06/23 00:16:17;;;;;;;10.35;8.75;;;29.80;47.40;;;;;;4358774;32;20186;-38
2021/06/23 00:18:43;;;;;;;10.70;9.50;;;29.80;47.50;;;;;;4358154;32;20171;-38
2021/06/23 00:21:10;;;;;;;10.02;9.10;;;29.80;47.50;;;;;;4358551;32;20058;-37
2021/06/23 00:23:36;;;;;;;10.00;9.20;;;29.80;47.30;;;;;;4357988;32;20077;-38
2021/06/23 00:26:02;;;;;;;15.55;9.20;;;29.80;47.20;;;;;;4328018;33;20117;-38
2021/06/23 00:28:30;;;;;;;10.05;9.15;;;29.90;47.50;;;;;;4340261;33;20282;-37
2021/06/23 00:30:57;;;;;;;9.85;8.95;;;29.90;47.60;;;;;;4328395;33;20086;-36
2021/06/23 00:33:25;;;;;;;10.05;9.27;;;30.00;47.50;;;;;;4340391;33;20063;-38
2021/06/23 00:35:51;;;;;;;10.05;9.13;;;30.00;47.80;;;;;;4316238;33;20162;-37
2021/06/23 00:38:18;;;;;;;17.17;9.90;;;30.00;47.50;;;;;;4340738;33;20069;-37
2021/06/23 00:40:45;;;;;;;12.88;8.90;;;30.10;48.30;;;;;;4328456;33;20086;-37
2021/06/23 00:43:12;;;;;;;10.30;9.23;;;30.10;47.70;;;;;;4340612;33;20083;-38
2021/06/23 00:45:39;;;;;;;9.65;8.73;;;30.10;47.60;;;;;;4328775;33;20073;-37
2021/06/23 00:48:08;;;;;;;10.25;9.00;;;30.20;47.40;;;;;;4345507;32;20163;-37
2021/06/23 00:50:35;;;;;;;12.73;10.02;;;30.20;47.40;;;;;;4370128;32;20088;-37
2021/06/23 00:53:02;;;;;;;15.30;9.55;;;30.20;47.50;;;;;;4345499;32;20124;-37
2021/06/23 00:55:28;;;;;;;13.60;10.02;;;30.20;47.70;;;;;;4355110;32;20071;-37
2021/06/23 00:57:55;;;;;;;11.65;9.98;;;30.30;47.90;;;;;;4333278;32;20089;-38
2021/06/23 01:00:29;;;;;;;12.57;9.73;;;30.30;47.70;;;;;;4330561;33;20184;-38
2021/06/23 01:02:55;;;;;;;15.55;9.90;;;30.40;48.00;;;;;;4347472;32;20105;-38
2021/06/23 01:05:22;;;;;;;13.68;10.70;;;30.50;48.00;;;;;;4358111;32;20161;-38
2021/06/23 01:07:48;;;;;;;21.02;10.30;;;30.50;48.80;;;;;;4333351;32;20086;-38
2021/06/23 01:10:15;;;;;;;21.50;10.85;;;30.60;48.90;;;;;;4345827;32;20070;-36
2021/06/23 01:12:45;;;;;;;15.80;9.95;;;30.70;49.30;;;;;;4357712;32;20259;-38
2021/06/23 01:15:14;;;;;;;20.92;11.40;;;30.80;48.70;;;;;;4357950;32;20078;-37
2021/06/23 01:17:41;;;;;;;11.05;9.85;;;30.90;47.80;;;;;;4358253;32;20078;-37
2021/06/23 01:20:12;;;;;;;27.15;12.85;;;31.00;47.30;;;;;;4357780;32;20135;-36
2021/06/23 01:22:43;;;;;;;20.52;11.52;;;31.20;46.90;;;;;;4358060;32;20185;-36
2021/06/23 01:25:12;;;;;;;17.15;10.45;;;31.30;46.40;;;;;;4357570;32;20078;-36
2021/06/23 01:27:40;;;;;;;32.10;14.43;;;31.30;46.50;;;;;;4372571;32;20077;-37
2021/06/23 01:30:08;;;;;;;23.87;13.15;;;31.40;46.60;;;;;;4359764;32;20216;-37
2021/06/23 01:32:34;;;;;;;23.23;12.75;;;31.40;46.60;;;;;;4360121;32;20085;-36
2021/06/23 01:35:01;;;;;;;18.52;11.15;;;31.60;46.80;;;;;;4359825;32;20082;-37
2021/06/23 01:37:28;;;;;;;29.80;11.98;;;31.60;47.10;;;;;;4371593;32;20506;-37
2021/06/23 01:39:54;;;;;;;27.52;15.25;;;31.70;46.80;;;;;;4391130;32;20153;-37
2021/06/23 01:42:20;;;;;;;27.17;14.02;;;31.80;46.80;;;;;;4405027;32;20087;-36
2021/06/23 01:44:47;;;;;;;25.35;11.70;;;31.90;47.00;;;;;;4404770;32;20552;-35
2021/06/23 01:47:13;;;;;;;16.92;11.10;;;32.00;46.70;;;;;;4390235;32;20075;-36
2021/06/23 01:49:40;;;;;;;14.57;10.07;;;32.20;47.30;;;;;;4388113;32;20074;-36
2021/06/23 01:52:07;;;;;;;13.90;10.48;;;32.30;47.70;;;;;;4389978;32;20592;-36
2021/06/23 01:54:33;;;;;;;14.65;9.48;;;32.50;47.80;;;;;;4389978;32;20077;-36
2021/06/23 01:57:00;;;;;;;12.60;9.40;;;32.70;47.80;;;;;;4359306;32;20081;-36
2021/06/23 01:59:26;;;;;;;12.57;8.65;;;32.90;47.40;;;;;;4372113;32;20066;-39
2021/06/23 02:02:14;;;;;;;15.75;8.38;;;33.10;47.80;;;;;;4359512;32;20208;-36
2021/06/23 02:05:07;;;;;;;15.32;8.10;;;33.40;46.90;;;;;;4359737;32;20113;-38
2021/06/23 02:08:08;;;;;;;8.02;6.90;;;33.60;45.80;;;;;;4359220;32;20086;-37
2021/06/23 02:10:56;;;;;;;9.70;6.82;;;33.90;45.10;;;;;;4371909;32;20062;-38
2021/06/23 02:13:28;;;;;;;7.70;7.20;;;34.20;44.90;;;;;;4372089;32;20081;-37
2021/06/23 02:16:08;;;;;;;8.27;6.80;;;34.40;44.40;;;;;;4371778;32;20155;-37
2021/06/23 02:18:35;;;;;;;7.53;6.82;;;34.60;44.00;;;;;;4360886;32;20062;-38
2021/06/23 02:21:02;;;;;;;9.20;6.35;;;34.80;43.90;;;;;;4359568;32;20511;-38
2021/06/23 02:23:28;;;;;;;7.32;6.68;;;34.90;43.60;;;;;;4359194;32;20092;-38
2021/06/23 02:25:54;;;;;;;7.72;6.93;;;35.10;43.30;;;;;;4359302;32;20136;-37
2021/06/23 02:28:21;;;;;;;7.43;6.65;;;35.40;43.00;;;;;;4366020;32;20081;-37
2021/06/23 02:30:47;;;;;;;7.62;6.43;;;35.70;42.60;;;;;;4359568;32;20086;-38
2021/06/23 02:33:14;;;;;;;7.12;5.97;;;35.90;42.30;;;;;;4359212;32;20073;-37
2021/06/23 02:35:40;;;;;;;11.48;6.15;;;36.10;41.90;;;;;;4359145;32;20556;-37
2021/06/23 02:38:07;;;;;;;6.55;5.30;;;36.30;41.80;;;;;;4371424;32;20082;-37
2021/06/23 02:40:33;;;;;;;6.45;5.85;;;36.40;41.60;;;;;;4359273;32;20086;-37
2021/06/23 02:43:00;;;;;;;7.05;6.35;;;36.50;41.30;;;;;;4359418;32;20088;-37
2021/06/23 02:45:27;;;;;;;7.35;6.53;;;36.60;40.90;;;;;;4346894;32;20125;-37
2021/06/23 02:47:54;;;;;;;12.82;6.97;;;36.70;40.80;;;;;;4358816;32;20069;-37
2021/06/23 02:50:21;;;;;;;8.93;6.87;;;36.80;40.50;;;;;;4371186;32;20046;-36
2021/06/23 02:52:47;;;;;;;7.70;6.97;;;37.00;40.20;;;;;;4341215;33;20102;-37
2021/06/23 02:55:19;;;;;;;11.05;6.68;;;37.20;39.10;;;;;;4341499;33;20147;-36
2021/06/23 02:57:47;;;;;;;7.15;6.50;;;37.20;38.90;;;;;;4341885;33;20090;-36
2021/06/23 03:00:18;;;;;;;11.57;7.35;;;37.40;38.60;;;;;;4342466;32;20098;-37
2021/06/23 03:02:44;;;;;;;9.80;6.57;;;37.60;38.50;;;;;;4356107;32;20644;-37
2021/06/23 03:05:11;;;;;;;6.85;6.18;;;37.80;38.20;;;;;;4344015;32;20494;-36
2021/06/23 03:07:38;;;;;;;12.00;6.45;;;38.00;37.70;;;;;;4344002;32;20063;-36
2021/06/23 03:10:09;;;;;;;12.70;6.82;;;38.20;37.50;;;;;;4331919;32;20159;-36
2021/06/23 03:12:36;;;;;;;6.85;6.15;;;38.30;37.30;;;;;;4344284;32;20503;-36
2021/06/23 03:15:05;;;;;;;8.48;6.57;;;38.20;37.00;;;;;;4331214;32;20490;-38
2021/06/23 03:17:31;;;;;;;9.52;5.95;;;38.10;37.10;;;;;;4356328;32;20171;-37
2021/06/23 03:19:58;;;;;;;10.80;6.53;;;38.10;37.30;;;;;;4355875;32;20085;-38
2021/06/23 03:22:24;;;;;;;12.73;7.53;;;38.00;37.30;;;;;;4355927;32;20158;-35
2021/06/23 03:24:51;;;;;;;9.73;6.80;;;38.00;37.60;;;;;;4356268;32;20668;-36
2021/06/23 03:27:17;;;;;;;9.52;7.07;;;38.00;38.20;;;;;;4356095;32;20101;-37
2021/06/23 03:29:44;;;;;;;8.45;7.43;;;38.00;38.80;;;;;;4350212;32;20093;-38
2021/06/23 03:32:11;;;;;;;11.90;7.57;;;38.10;38.60;;;;;;4373221;32;20146;-37
2021/06/23 03:34:38;;;;;;;13.75;8.25;;;38.20;37.80;;;;;;4372832;32;20173;-37
2021/06/23 03:37:05;;;;;;;11.93;7.57;;;38.10;38.10;;;;;;4373463;32;20514;-37
2021/06/23 03:39:32;;;;;;;17.87;8.45;;;38.10;38.90;;;;;;4373217;32;20155;-37
2021/06/23 03:41:59;;;;;;;15.07;8.77;;;38.40;38.60;;;;;;4373291;32;20509;-39
2021/06/23 03:44:25;;;;;;;15.32;8.95;;;38.70;37.20;;;;;;4373004;32;20094;-37
2021/06/23 03:46:55;;;;;;;21.98;9.82;;;39.00;37.10;;;;;;4373142;32;20066;-38
2021/06/23 03:49:23;;;;;;;19.65;8.90;;;39.20;35.60;;;;;;4358785;32;20545;-42
2021/06/23 03:51:49;;;;;;;13.55;8.05;;;39.10;34.30;;;;;;4358589;32;20458;-39
2021/06/23 03:54:16;;;;;;;14.65;8.82;;;38.90;34.40;;;;;;4358221;32;20047;-38
2021/06/23 03:56:42;;;;;;;20.27;8.65;;;38.70;34.30;;;;;;4357969;32;20691;-38
2021/06/23 03:59:09;;;;;;;18.40;6.57;;;38.50;34.70;;;;;;4357970;32;20064;-38
2021/06/23 04:01:35;;;;;;;12.00;5.40;;;38.40;34.10;;;;;;4356553;32;20058;-38
2021/06/23 04:04:01;;;;;;;8.00;4.35;;;38.10;33.00;;;;;;4358079;32;20151;-38
2021/06/23 04:06:28;;;;;;;9.45;4.93;;;37.90;33.00;;;;;;4357950;32;20078;-38
2021/06/23 04:08:55;;;;;;;10.70;3.67;;;37.70;33.30;;;;;;4380362;32;20201;-36
2021/06/23 04:11:21;;;;;;;8.18;3.90;;;37.50;33.20;;;;;;4374784;32;20065;-37
2021/06/23 04:13:48;;;;;;;9.77;4.45;;;37.50;33.30;;;;;;4373871;32;20072;-37
2021/06/23 04:16:14;;;;;;;6.78;3.95;;;37.40;33.30;;;;;;4373592;32;20073;-38
2021/06/23 04:18:41;;;;;;;5.72;3.80;;;37.50;33.70;;;;;;4340405;32;20079;-37
2021/06/23 04:21:10;;;;;;;13.93;5.62;;;37.70;33.50;;;;;;4328003;33;20070;-38
2021/06/23 04:23:36;;;;;;;5.78;3.55;;;37.80;33.10;;;;;;4340376;32;20067;-38
2021/06/23 04:26:03;;;;;;;5.90;3.03;;;37.90;32.30;;;;;;4340478;32;20710;-38
2021/06/23 04:28:29;;;;;;;6.78;2.50;;;38.00;32.10;;;;;;4328443;33;20073;-38
2021/06/23 04:30:56;;;;;;;2.78;2.58;;;38.00;31.80;;;;;;4342158;32;20131;-38
2021/06/23 04:33:22;;;;;;;6.80;2.95;;;38.10;32.30;;;;;;4344030;33;20080;-38
2021/06/23 04:35:50;;;;;;;6.10;2.92;;;38.30;32.10;;;;;;4331002;33;20164;-39
2021/06/23 04:38:16;;;;;;;9.52;3.37;;;38.50;30.60;;;;;;4331209;33;20118;-36
2021/06/23 04:40:43;;;;;;;8.63;2.55;;;38.60;30.70;;;;;;4330861;33;20075;-38
2021/06/23 04:43:10;;;;;;;7.30;3.17;;;38.50;31.00;;;;;;4343333;32;20086;-38
2021/06/23 04:45:36;;;;;;;4.68;2.95;;;38.40;30.70;;;;;;4331168;32;20083;-38
2021/06/23 04:48:04;;;;;;;7.93;3.42;;;38.30;31.10;;;;;;4349455;32;20279;-38
2021/06/23 04:50:30;;;;;;;7.97;2.97;;;38.20;31.30;;;;;;4345925;32;20162;-37
2021/06/23 04:52:57;;;;;;;7.60;3.40;;;38.10;31.20;;;;;;4358438;32;20067;-38
2021/06/23 04:55:23;;;;;;;4.47;2.90;;;38.20;31.40;;;;;;4354581;32;20058;-37
2021/06/23 04:57:50;;;;;;;8.35;2.55;;;38.20;30.70;;;;;;4391357;32;20061;-38
2021/06/23 05:00:18;;;;;;;5.90;2.53;;;38.40;31.10;;;;;;4405356;32;20093;-37
2021/06/23 05:02:44;;;;;;;5.43;2.58;;;38.60;31.20;;;;;;4405537;32;20089;-37
2021/06/23 05:05:11;;;;;;;10.40;2.95;;;38.80;30.70;;;;;;4391297;32;20068;-36
2021/06/23 05:07:37;;;;;;;6.72;3.25;;;38.90;30.10;;;;;;4391811;32;20506;-36
2021/06/23 05:10:05;;;;;;;6.32;3.62;;;39.10;30.30;;;;;;4405432;32;20080;-36
2021/06/23 05:12:32;;;;;;;10.63;2.90;;;39.50;30.60;;;;;;4391345;32;20073;-36
2021/06/23 05:14:58;;;;;;;5.32;2.62;;;39.80;30.00;;;;;;4405560;32;20065;-38
2021/06/23 05:17:25;;;;;;;7.18;3.03;;;39.90;29.50;;;;;;4391447;32;20065;-37
2021/06/23 05:19:52;;;;;;;5.40;2.97;;;39.90;29.40;;;;;;4405106;32;20104;-37
2021/06/23 05:22:18;;;;;;;9.35;2.90;;;40.00;28.80;;;;;;4405114;32;20552;-36
2021/06/23 05:24:45;;;;;;;5.75;2.12;;;40.20;28.80;;;;;;4405125;32;20141;-37
2021/06/23 05:27:12;;;;;;;6.50;2.40;;;40.20;28.10;;;;;;4405171;32;20057;-37
2021/06/23 05:29:39;;;;;;;7.03;2.62;;;40.20;28.40;;;;;;4405153;32;20122;-37
2021/06/23 05:32:06;;;;;;;8.27;2.20;;;40.10;28.60;;;;;;4390915;32;20553;-37
2021/06/23 05:34:32;;;;;;;3.40;1.55;;;40.00;28.70;;;;;;4404599;32;20077;-36
2021/06/23 05:36:59;;;;;;;4.45;1.62;;;40.20;28.50;;;;;;4405187;32;20541;-37
2021/06/23 05:39:25;;;;;;;6.15;2.50;;;40.20;28.40;;;;;;4405015;32;20184;-38
2021/06/23 05:41:52;;;;;;;6.43;1.90;;;40.20;28.70;;;;;;4404364;32;20064;-38
2021/06/23 05:44:19;;;;;;;4.90;2.85;;;40.30;28.70;;;;;;4390882;32;20053;-38
2021/06/23 05:46:45;;;;;;;8.32;3.00;;;40.30;28.90;;;;;;4404959;32;20085;-38
2021/06/23 05:49:11;;;;;;;6.37;5.32;;;40.40;29.10;;;;;;4390667;32;20069;-38
2021/06/23 05:51:38;;;;;;;7.30;5.75;;;40.60;33.00;;;;;;4405003;32;20613;-38
2021/06/23 05:54:04;;;;;;;9.23;6.80;;;40.80;34.50;;;;;;4356778;32;20553;-38
2021/06/23 05:56:31;;;;;;;8.63;7.07;;;41.00;34.70;;;;;;4356590;32;20055;-38
2021/06/23 05:58:57;;;;;;;8.25;5.85;;;41.00;34.60;;;;;;4314759;33;20110;-38
2021/06/23 06:01:24;;;;;;;7.97;5.40;;;40.90;34.70;;;;;;4326985;33;20092;-38
2021/06/23 06:03:51;;;;;;;7.45;5.12;;;40.90;35.20;;;;;;4315360;33;20071;-38
2021/06/23 06:06:17;;;;;;;5.35;4.90;;;41.20;35.60;;;;;;4315516;33;20095;-37
2021/06/23 06:08:44;;;;;;;5.60;4.53;;;41.40;34.80;;;;;;4314901;33;20213;-37
2021/06/23 06:11:10;;;;;;;7.78;4.65;;;41.60;34.60;;;;;;4327211;33;20472;-38
2021/06/23 06:13:37;;;;;;;5.60;4.20;;;41.70;34.70;;;;;;4327155;33;20551;-39
2021/06/23 06:16:04;;;;;;;5.10;3.78;;;41.80;35.30;;;;;;4327165;33;20147;-41
2021/06/23 06:18:30;;;;;;;8.55;4.00;;;42.00;34.30;;;;;;4327641;33;20089;-38
2021/06/23 06:20:58;;;;;;;3.08;2.53;;;42.20;33.30;;;;;;4302954;33;20168;-39
2021/06/23 06:23:28;;;;;;;7.55;2.53;;;42.20;31.20;;;;;;4315028;33;20180;-38
2021/06/23 06:25:55;;;;;;;4.65;1.55;;;42.10;29.70;;;;;;4351734;32;20086;-40
2021/06/23 06:28:21;;;;;;;6.22;1.70;;;42.00;28.20;;;;;;4356761;32;20068;-38
2021/06/23 06:30:48;;;;;;;7.03;2.80;;;42.00;27.60;;;;;;4396837;32;20058;-38
2021/06/23 06:33:15;;;;;;;7.07;3.40;;;42.10;31.90;;;;;;4390458;32;20076;-38
2021/06/23 06:35:42;;;;;;;3.85;3.10;;;42.20;32.70;;;;;;4404134;32;20054;-38
2021/06/23 06:38:08;;;;;;;7.95;3.50;;;42.50;32.90;;;;;;4403758;32;20122;-38
2021/06/23 06:40:35;;;;;;;6.62;2.72;;;42.90;33.00;;;;;;4389987;32;20105;-37
2021/06/23 06:43:01;;;;;;;2.42;2.22;;;43.30;31.70;;;;;;4390477;32;20162;-39
2021/06/23 06:45:28;;;;;;;5.53;2.22;;;43.60;31.50;;;;;;4404215;32;20065;-38
2021/06/23 06:47:54;;;;;;;3.65;2.47;;;43.90;30.80;;;;;;4384437;32;20088;-40
2021/06/23 06:50:21;;;;;;;4.65;2.72;;;44.20;30.40;;;;;;4388734;32;20557;-38
2021/06/23 06:52:47;;;;;;;5.65;1.75;;;44.10;30.70;;;;;;4389174;32;20070;-39
2021/06/23 06:55:20;;;;;;;0.95;0.73;;;44.10;27.00;;;;;;4388500;32;20606;-38
2021/06/23 06:57:51;;;;;;;1.50;1.10;;;43.70;24.80;;;;;;4388976;32;20057;-38
2021/06/23 07:00:19;;;;;;;3.78;1.17;;;43.20;25.30;;;;;;4388640;32;20062;-38
2021/06/23 07:02:46;;;;;;;5.45;1.10;;;42.90;25.40;;;;;;4388898;32;20069;-39
2021/06/23 07:05:12;;;;;;;1.48;1.17;;;42.60;25.70;;;;;;4388404;32;20073;-37
2021/06/23 07:07:39;;;;;;;4.70;2.08;;;42.40;26.10;;;;;;4388812;32;20093;-38
2021/06/23 07:10:06;;;;;;;2.22;1.90;;;42.10;28.20;;;;;;4388679;32;20066;-40
2021/06/23 07:12:33;;;;;;;7.30;1.55;;;42.10;28.80;;;;;;4389013;32;20598;-38
2021/06/23 07:14:59;;;;;;;2.37;1.62;;;42.20;27.50;;;;;;4388448;32;20072;-38
2021/06/23 07:17:26;;;;;;;4.40;2.10;;;42.50;28.40;;;;;;4388339;32;20180;-38
2021/06/23 07:19:52;;;;;;;4.43;1.52;;;42.70;29.00;;;;;;4388419;32;20610;-38
2021/06/23 07:22:20;;;;;;;6.47;1.67;;;43.00;27.00;;;;;;4388473;32;20058;-37
2021/06/23 07:24:46;;;;;;;2.03;1.40;;;43.20;26.30;;;;;;4388181;32;20094;-38
2021/06/23 07:27:13;;;;;;;5.70;1.40;;;43.40;26.00;;;;;;4388338;32;20070;-38
2021/06/23 07:29:39;;;;;;;3.55;1.23;;;43.50;25.60;;;;;;4388430;32;20065;-37
2021/06/23 07:32:11;;;;;;;1.62;1.20;;;43.50;25.40;;;;;;4388266;32;20078;-39
2021/06/23 07:37:15;;;;;;;5.37;1.40;;;43.70;25.90;;;;;;4388058;32;20073;-37
2021/06/23 07:39:42;;;;;;;5.60;1.20;;;43.80;27.40;;;;;;4388310;32;20157;-38
2021/06/23 07:42:09;;;;;;;5.78;1.52;;;43.90;26.10;;;;;;4388503;32;20054;-37
2021/06/23 07:47:10;;;;;;;3.92;1.10;;;44.30;25.90;;;;;;4388921;32;20073;-38
2021/06/23 07:49:40;;;;;;;3.37;1.25;;;44.20;25.80;;;;;;4389387;32;20054;-39
2021/06/23 08:10:36;;;;;;;1.20;0.82;;;42.90;24.70;;;;;;4402781;32;20061;-37
2021/06/23 08:13:03;;;;;;;2.05;0.90;;;42.80;24.90;;;;;;4402742;32;20149;-39
2021/06/23 08:15:32;;;;;;;3.85;1.08;;;42.40;24.70;;;;;;4402738;32;20054;-37
2021/06/23 08:17:59;;;;;;;3.42;1.15;;;42.20;25.00;;;;;;4402814;32;20153;-38
2021/06/23 08:20:25;;;;;;;5.95;1.87;;;42.10;25.30;;;;;;4402904;32;20061;-38
2021/06/23 08:22:52;;;;;;;6.03;0.90;;;42.00;25.20;;;;;;4403087;32;20093;-38
2021/06/23 08:25:20;;;;;;;1.55;0.90;;;42.00;25.10;;;;;;4388532;32;20140;-38
2021/06/23 08:27:47;;;;;;;5.65;1.25;;;42.10;25.20;;;;;;4402917;32;20050;-38
2021/06/23 08:30:14;;;;;;;1.27;1.00;;;42.10;25.20;;;;;;4402755;32;20469;-38
2021/06/23 08:32:41;;;;;;;1.83;1.30;;;42.10;25.10;;;;;;4402769;32;20070;-37
2021/06/23 08:35:08;;;;;;;1.52;0.80;;;42.10;25.10;;;;;;4402550;32;20049;-38
2021/06/23 08:37:36;;;;;;;5.07;1.23;;;42.00;25.00;;;;;;4403191;32;20184;-37
2021/06/23 08:40:05;;;;;;;2.28;1.10;;;42.10;25.10;;;;;;4403091;32;20062;-38
2021/06/23 08:42:31;;;;;;;4.05;1.25;;;42.10;25.20;;;;;;4402377;32;20184;-38
2021/06/23 08:44:58;;;;;;;1.65;0.55;;;42.20;25.10;;;;;;4388281;32;20144;-38
2021/06/23 08:47:24;;;;;;;0.85;0.70;;;42.10;24.80;;;;;;4399793;32;20080;-38
2021/06/23 08:49:51;;;;;;;1.27;0.93;;;41.70;25.00;;;;;;4387754;32;20065;-38
2021/06/23 08:52:18;;;;;;;1.80;0.98;;;41.40;25.10;;;;;;4386026;32;20556;-38
2021/06/23 08:54:49;;;;;;;1.48;0.98;;;40.90;25.30;;;;;;4387496;32;20108;-38
2021/06/23 08:57:16;;;;;;;4.85;1.00;;;40.70;25.40;;;;;;4387500;32;20085;-38
2021/06/23 08:59:42;;;;;;;4.55;1.02;;;40.50;25.60;;;;;;4387752;32;20065;-37
2021/06/23 09:02:16;;;;;;;3.17;1.35;;;40.50;25.70;;;;;;4355315;32;20076;-38
2021/06/23 09:05:16;;;;;;;3.50;1.65;;;40.90;25.90;;;;;;4355386;32;20157;-36
2021/06/23 09:07:58;;;;;;;2.80;1.45;;;41.30;25.80;;;;;;4324891;33;20149;-38
2021/06/23 09:10:25;;;;;;;6.32;0.98;;;41.70;25.60;;;;;;4296026;33;20560;-39
2021/06/23 09:13:12;;;;;;;2.95;1.65;;;41.90;25.30;;;;;;4296417;33;20075;-37
2021/06/23 09:16:01;;;;;;;5.50;2.00;;;41.90;24.90;;;;;;4288713;33;20248;-38
2021/06/23 09:18:40;;;;;;;2.17;1.17;;;41.80;25.20;;;;;;4297597;33;20153;-39
2021/06/23 09:21:16;;;;;;;5.40;1.10;;;41.90;25.10;;;;;;4299038;33;20520;-39
2021/06/23 09:23:51;;;;;;;4.05;1.42;;;41.90;24.90;;;;;;4299050;33;20576;-38
2021/06/23 09:26:34;;;;;;;1.65;0.80;;;41.90;25.00;;;;;;4286692;33;20580;-37
2021/06/23 09:29:17;;;;;;;1.33;0.93;;;41.80;24.90;;;;;;4287032;33;20114;-38
2021/06/23 09:32:01;;;;;;;1.17;0.90;;;41.50;24.90;;;;;;4298345;33;20453;-37
2021/06/23 09:34:28;;;;;;;1.50;0.60;;;41.10;25.20;;;;;;4298344;33;20298;-38
2021/06/23 09:36:55;;;;;;;2.08;1.20;;;41.00;25.20;;;;;;4298583;33;20250;-40
2021/06/23 09:39:24;;;;;;;2.00;1.08;;;40.80;25.30;;;;;;4303187;33;20059;-39
2021/06/23 09:41:51;;;;;;;3.50;1.23;;;40.80;25.50;;;;;;4322494;33;20176;-38
2021/06/23 09:44:18;;;;;;;0.60;0.57;;;40.80;25.40;;;;;;4354693;32;20157;-38
2021/06/23 09:46:47;;;;;;;5.97;0.85;;;40.50;25.40;;;;;;4357205;32;20092;-37
2021/06/23 09:49:24;;;;;;;1.83;1.52;;;40.50;25.60;;;;;;4357469;32;20153;-39
2021/06/23 09:51:56;;;;;;;5.40;1.35;;;40.50;25.50;;;;;;4357559;32;20507;-38
2021/06/23 09:54:27;;;;;;;2.05;0.90;;;40.50;25.60;;;;;;4356954;32;20085;-37
2021/06/23 09:57:03;;;;;;;0.68;0.50;;;40.50;25.60;;;;;;4357202;32;20602;-39
2021/06/23 09:59:37;;;;;;;2.62;1.52;;;40.50;25.60;;;;;;4357028;32;20499;-38
2021/06/23 10:02:04;;;;;;;6.55;1.27;;;40.50;25.50;;;;;;4345124;32;20089;-38
2021/06/23 10:04:35;;;;;;;7.62;1.15;;;40.60;25.60;;;;;;4357037;32;20141;-38
2021/06/23 10:07:05;;;;;;;2.97;0.90;;;40.80;25.50;;;;;;4356892;32;20088;-38
2021/06/23 10:09:32;;;;;;;4.45;1.15;;;41.00;25.30;;;;;;4356992;32;20082;-38
2021/06/23 10:12:01;;;;;;;0.73;0.50;;;41.10;25.10;;;;;;4356805;32;20502;-38
2021/06/23 10:14:30;;;;;;;3.00;1.00;;;41.10;24.90;;;;;;4356911;32;20074;-37
2021/06/23 10:17:00;;;;;;;2.28;1.05;;;40.90;24.70;;;;;;4357203;32;20067;-38
2021/06/23 10:19:27;;;;;;;3.00;1.55;;;40.80;24.80;;;;;;4383183;32;20063;-38
2021/06/23 10:21:59;;;;;;;2.62;1.00;;;40.80;24.90;;;;;;4404193;32;20549;-37
2021/06/23 10:24:27;;;;;;;1.73;1.10;;;40.70;24.80;;;;;;4404514;32;20058;-38
2021/06/23 10:26:54;;;;;;;5.43;1.37;;;40.50;24.60;;;;;;4378037;32;20146;-38
2021/06/23 10:29:25;;;;;;;3.12;1.02;;;40.60;24.60;;;;;;4389485;32;20046;-38
2021/06/23 10:31:52;;;;;;;3.83;1.02;;;40.70;24.50;;;;;;4404313;32;20061;-37
2021/06/23 10:34:19;;;;;;;1.90;0.80;;;40.80;24.40;;;;;;4403805;32;20077;-38
2021/06/23 10:36:46;;;;;;;1.60;0.75;;;40.70;24.30;;;;;;4404239;32;20132;-37
2021/06/23 10:39:14;;;;;;;3.12;0.93;;;40.70;24.20;;;;;;4403876;32;20068;-38
2021/06/23 10:41:49;;;;;;;7.47;1.08;;;40.70;24.20;;;;;;4377378;32;20156;-38
2021/06/23 10:44:47;;;;;;;3.78;0.77;;;40.90;24.20;;;;;;4390412;32;20090;-38
2021/06/23 10:47:45;;;;;;;4.95;0.95;;;41.20;23.60;;;;;;4402578;32;20062;-38
2021/06/23 10:50:17;;;;;;;3.30;1.10;;;41.40;23.50;;;;;;4341255;32;20212;-37
2021/06/23 10:52:45;;;;;;;3.42;1.48;;;41.50;23.30;;;;;;4341692;32;20601;-39
2021/06/23 10:55:14;;;;;;;1.52;0.93;;;41.80;23.40;;;;;;4340973;32;20078;-38
2021/06/23 10:57:44;;;;;;;1.52;0.70;;;41.90;23.30;;;;;;4341112;32;20079;-39
2021/06/23 11:00:13;;;;;;;4.22;0.80;;;41.80;23.30;;;;;;4341305;32;20139;-38
2021/06/23 11:02:42;;;;;;;4.90;0.90;;;41.60;23.40;;;;;;4341358;32;20150;-38
2021/06/23 11:05:15;;;;;;;4.35;1.10;;;41.40;23.30;;;;;;4329169;33;20792;-38
2021/06/23 11:07:50;;;;;;;10.35;1.75;;;41.40;23.30;;;;;;4341187;33;20147;-38
2021/06/23 11:10:19;;;;;;;5.18;0.95;;;41.30;23.30;;;;;;4341119;32;20077;-38
2021/06/23 11:13:02;;;;;;;0.95;0.80;;;41.30;23.20;;;;;;4341678;33;20724;-38
2021/06/23 11:15:31;;;;;;;1.97;0.80;;;41.20;23.20;;;;;;4340808;33;20175;-37
2021/06/23 11:18:26;;;;;;;2.72;0.88;;;41.10;23.20;;;;;;4340879;32;20067;-37
2021/06/23 11:21:06;;;;;;;7.28;1.48;;;41.20;23.40;;;;;;4341037;32;20487;-37
2021/06/23 11:24:02;;;;;;;2.67;1.00;;;41.20;23.10;;;;;;4329890;33;20094;-38
2021/06/23 11:26:28;;;;;;;2.60;1.25;;;41.20;23.40;;;;;;4349109;32;20156;-39
2021/06/23 11:29:15;;;;;;;2.55;2.28;;;41.30;23.90;;;;;;4357959;32;20085;-37
2021/06/23 11:31:46;;;;;;;4.30;1.00;;;41.60;24.00;;;;;;4354885;32;20494;-39
2021/06/23 11:34:38;;;;;;;4.32;1.05;;;41.80;23.90;;;;;;4357914;32;20507;-37
2021/06/23 11:37:07;;;;;;;2.87;1.10;;;41.90;23.90;;;;;;4358067;32;20166;-37
2021/06/23 11:39:33;;;;;;;1.62;1.37;;;41.90;23.80;;;;;;4357558;32;20066;-38
2021/06/23 11:42:00;;;;;;;4.18;1.85;;;41.90;23.70;;;;;;4356425;32;20050;-39
2021/06/23 11:44:29;;;;;;;7.53;1.52;;;42.00;23.80;;;;;;4313873;33;20144;-39
2021/06/23 11:46:58;;;;;;;4.85;1.37;;;42.00;23.90;;;;;;4326592;33;20143;-37
2021/06/23 11:49:25;;;;;;;8.65;2.08;;;41.90;24.00;;;;;;4355114;32;20085;-37
2021/06/23 11:51:51;;;;;;;2.58;0.80;;;42.00;24.30;;;;;;4355376;32;20155;-38
2021/06/23 11:54:18;;;;;;;4.10;1.75;;;41.90;23.90;;;;;;4355427;32;20086;-39
2021/06/23 11:56:44;;;;;;;2.25;1.10;;;41.70;24.10;;;;;;4355336;32;20082;-38
2021/06/23 11:59:11;;;;;;;6.55;1.50;;;41.70;24.10;;;;;;4355272;32;20172;-40
2021/06/23 12:01:37;;;;;;;1.83;0.85;;;41.70;24.80;;;;;;4355477;32;20507;-38
2021/06/23 12:04:04;;;;;;;4.25;1.25;;;41.80;24.20;;;;;;4355256;32;20067;-39
2021/06/23 12:06:30;;;;;;;5.03;1.83;;;41.80;24.10;;;;;;4342884;32;20089;-38
2021/06/23 12:08:57;;;;;;;2.22;1.15;;;41.40;24.30;;;;;;4365975;32;20061;-37
2021/06/23 12:11:23;;;;;;;4.32;2.20;;;41.10;24.50;;;;;;4370409;32;20069;-38
2021/06/23 12:13:49;;;;;;;4.93;1.87;;;41.00;24.70;;;;;;4370427;32;20085;-39
2021/06/23 12:16:16;;;;;;;1.08;0.88;;;41.00;24.90;;;;;;4359705;32;20530;-37
2021/06/23 12:18:43;;;;;;;9.18;4.45;;;40.80;25.00;;;;;;4357556;32;20104;-38
2021/06/23 12:21:09;;;;;;;6.43;5.47;;;40.80;25.10;;;;;;4357721;32;20167;-38
2021/06/23 12:23:37;;;;;;;3.90;3.60;;;40.80;25.20;;;;;;4357524;32;20575;-38
2021/06/23 12:26:04;;;;;;;4.82;2.50;;;40.80;25.20;;;;;;4357584;32;20073;-39
2021/06/23 12:28:30;;;;;;;0.85;0.85;;;40.80;25.30;;;;;;4357835;32;20097;-39
2021/06/23 12:30:56;;;;;;;5.32;2.85;;;41.00;25.30;;;;;;4357650;32;20133;-37
2021/06/23 12:33:23;;;;;;;7.25;3.72;;;41.00;25.20;;;;;;4358168;32;20090;-37
2021/06/23 12:35:49;;;;;;;1.73;1.25;;;41.10;25.10;;;;;;4357631;32;20526;-37
2021/06/23 12:38:17;;;;;;;1.87;1.27;;;41.20;25.10;;;;;;4357666;32;20078;-37
2021/06/23 12:40:44;;;;;;;3.25;1.40;;;41.20;25.10;;;;;;4357829;32;20104;-39
2021/06/23 12:43:13;;;;;;;4.50;1.37;;;41.30;25.40;;;;;;4357497;32;20062;-37
2021/06/23 12:45:45;;;;;;;4.05;0.80;;;41.30;25.00;;;;;;4357683;32;20528;-38
2021/06/23 12:48:12;;;;;;;2.28;0.88;;;41.20;25.30;;;;;;4364931;32;20074;-38
2021/06/23 12:50:38;;;;;;;4.28;1.45;;;41.00;25.40;;;;;;4372362;32;20058;-37
2021/06/23 12:53:05;;;;;;;3.72;0.95;;;41.10;25.50;;;;;;4375415;32;20058;-38
2021/06/23 12:55:31;;;;;;;1.30;1.08;;;41.10;25.40;;;;;;4375390;32;20065;-38
2021/06/23 12:57:58;;;;;;;1.00;0.88;;;41.00;25.60;;;;;;4375125;32;20081;-37
2021/06/23 13:00:24;;;;;;;0.85;0.65;;;40.90;25.70;;;;;;4374125;32;20054;-38
2021/06/23 13:02:51;;;;;;;6.85;4.07;;;40.80;25.70;;;;;;4375507;32;20082;-38
2021/06/23 13:05:18;;;;;;;6.25;3.60;;;40.80;25.70;;;;;;4375523;32;20133;-38
2021/06/23 13:07:45;;;;;;;8.30;2.97;;;40.90;25.90;;;;;;4377399;32;20151;-38
2021/06/23 13:10:13;;;;;;;6.35;2.67;;;41.00;25.90;;;;;;4390416;32;20064;-37
2021/06/23 13:12:40;;;;;;;4.22;1.40;;;41.00;25.70;;;;;;4389914;32;20184;-38
2021/06/23 13:15:08;;;;;;;7.22;1.70;;;41.20;25.90;;;;;;4388442;32;20085;-37